sensor_id;sensor_type;location;lat;lon;timestamp;P1;durP1;ratioP1;P2;durP2;ratioP2
62863;SDS011;48954;59.950;11.014;2023-06-24T00:00:32;6.60;;;3.80;;
62863;SDS011;48954;59.950;11.014;2023-06-24T00:03:24;8.10;;;4.70;;
62863;SDS011;48954;59.950;11.014;2023-06-24T00:05:59;9.60;;;4.40;;
62863;SDS011;48954;59.950;11.014;2023-06-24T00:08:25;8.40;;;4.30;;
62863;SDS011;48954;59.950;11.014;2023-06-24T00:10:52;7.20;;;4.00;;
62863;SDS011;48954;59.950;11.014;2023-06-24T00:13:18;8.10;;;4.80;;
62863;SDS011;48954;59.950;11.014;2023-06-24T00:15:45;8.10;;;4.30;;
62863;SDS011;48954;59.950;11.014;2023-06-24T00:18:11;7.90;;;4.40;;
62863;SDS011;48954;59.950;11.014;2023-06-24T00:20:56;8.40;;;4.10;;
62863;SDS011;48954;59.950;11.014;2023-06-24T00:23:28;7.70;;;4.20;;
62863;SDS011;48954;59.950;11.014;2023-06-24T00:28:26;7.60;;;4.90;;
62863;SDS011;48954;59.950;11.014;2023-06-24T00:31:02;6.10;;;3.90;;
62863;SDS011;48954;59.950;11.014;2023-06-24T00:33:28;5.70;;;3.70;;
62863;SDS011;48954;59.950;11.014;2023-06-24T00:35:59;10.10;;;4.30;;
62863;SDS011;48954;59.950;11.014;2023-06-24T00:38:39;6.90;;;4.00;;
62863;SDS011;48954;59.950;11.014;2023-06-24T00:41:13;5.20;;;3.60;;
62863;SDS011;48954;59.950;11.014;2023-06-24T00:43:53;7.40;;;3.50;;
62863;SDS011;48954;59.950;11.014;2023-06-24T00:46:24;5.50;;;3.60;;
62863;SDS011;48954;59.950;11.014;2023-06-24T00:49:12;7.00;;;4.10;;
62863;SDS011;48954;59.950;11.014;2023-06-24T00:51:55;5.90;;;4.00;;
62863;SDS011;48954;59.950;11.014;2023-06-24T00:54:24;7.20;;;4.10;;
62863;SDS011;48954;59.950;11.014;2023-06-24T00:56:51;5.10;;;3.40;;
62863;SDS011;48954;59.950;11.014;2023-06-24T00:59:18;7.40;;;4.10;;
62863;SDS011;48954;59.950;11.014;2023-06-24T01:01:45;6.90;;;4.30;;
62863;SDS011;48954;59.950;11.014;2023-06-24T01:04:12;6.10;;;3.60;;
62863;SDS011;48954;59.950;11.014;2023-06-24T01:06:39;6.20;;;3.60;;
62863;SDS011;48954;59.950;11.014;2023-06-24T01:09:06;7.70;;;4.20;;
62863;SDS011;48954;59.950;11.014;2023-06-24T01:11:33;6.20;;;3.70;;
62863;SDS011;48954;59.950;11.014;2023-06-24T01:14:02;7.80;;;3.90;;
62863;SDS011;48954;59.950;11.014;2023-06-24T01:19:53;7.20;;;3.40;;
62863;SDS011;48954;59.950;11.014;2023-06-24T01:22:46;6.20;;;3.70;;
62863;SDS011;48954;59.950;11.014;2023-06-24T01:31:37;6.90;;;3.80;;
62863;SDS011;48954;59.950;11.014;2023-06-24T01:34:29;7.00;;;3.40;;
62863;SDS011;48954;59.950;11.014;2023-06-24T01:37:12;5.00;;;3.10;;
62863;SDS011;48954;59.950;11.014;2023-06-24T01:39:47;6.80;;;3.50;;
62863;SDS011;48954;59.950;11.014;2023-06-24T01:42:17;6.20;;;3.80;;
62863;SDS011;48954;59.950;11.014;2023-06-24T01:44:47;7.40;;;3.50;;
62863;SDS011;48954;59.950;11.014;2023-06-24T01:47:18;5.20;;;3.10;;
62863;SDS011;48954;59.950;11.014;2023-06-24T01:50:03;4.60;;;3.00;;
62863;SDS011;48954;59.950;11.014;2023-06-24T01:52:47;5.80;;;3.40;;
62863;SDS011;48954;59.950;11.014;2023-06-24T01:55:20;7.50;;;3.40;;
62863;SDS011;48954;59.950;11.014;2023-06-24T01:57:52;3.80;;;2.90;;
62863;SDS011;48954;59.950;11.014;2023-06-24T02:00:23;5.30;;;3.60;;
62863;SDS011;48954;59.950;11.014;2023-06-24T02:02:52;5.70;;;3.00;;
62863;SDS011;48954;59.950;11.014;2023-06-24T02:05:37;5.10;;;3.10;;
62863;SDS011;48954;59.950;11.014;2023-06-24T02:08:07;4.60;;;3.00;;
62863;SDS011;48954;59.950;11.014;2023-06-24T02:10:54;4.30;;;2.80;;
62863;SDS011;48954;59.950;11.014;2023-06-24T02:13:37;4.60;;;3.20;;
62863;SDS011;48954;59.950;11.014;2023-06-24T02:16:14;4.10;;;3.10;;
62863;SDS011;48954;59.950;11.014;2023-06-24T02:18:48;4.40;;;3.00;;
62863;SDS011;48954;59.950;11.014;2023-06-24T02:21:39;4.80;;;3.20;;
62863;SDS011;48954;59.950;11.014;2023-06-24T02:24:07;5.40;;;3.00;;
62863;SDS011;48954;59.950;11.014;2023-06-24T02:27:00;5.10;;;3.00;;
62863;SDS011;48954;59.950;11.014;2023-06-24T02:29:35;6.80;;;3.20;;
62863;SDS011;48954;59.950;11.014;2023-06-24T02:32:03;4.70;;;3.10;;
62863;SDS011;48954;59.950;11.014;2023-06-24T02:34:30;4.60;;;2.80;;
62863;SDS011;48954;59.950;11.014;2023-06-24T02:36:57;5.50;;;3.10;;
62863;SDS011;48954;59.950;11.014;2023-06-24T02:39:23;5.80;;;3.10;;
62863;SDS011;48954;59.950;11.014;2023-06-24T02:41:50;4.20;;;3.10;;
62863;SDS011;48954;59.950;11.014;2023-06-24T02:44:16;4.20;;;2.90;;
62863;SDS011;48954;59.950;11.014;2023-06-24T02:46:43;3.90;;;2.70;;
62863;SDS011;48954;59.950;11.014;2023-06-24T02:49:12;6.50;;;3.20;;
62863;SDS011;48954;59.950;11.014;2023-06-24T02:51:41;5.10;;;3.20;;
62863;SDS011;48954;59.950;11.014;2023-06-24T02:54:08;4.80;;;3.60;;
62863;SDS011;48954;59.950;11.014;2023-06-24T02:56:35;5.20;;;3.30;;
62863;SDS011;48954;59.950;11.014;2023-06-24T02:59:09;5.80;;;3.40;;
62863;SDS011;48954;59.950;11.014;2023-06-24T03:01:35;4.80;;;3.40;;
62863;SDS011;48954;59.950;11.014;2023-06-24T03:04:02;5.70;;;2.90;;
62863;SDS011;48954;59.950;11.014;2023-06-24T03:06:29;7.30;;;3.30;;
62863;SDS011;48954;59.950;11.014;2023-06-24T03:08:56;4.90;;;3.10;;
62863;SDS011;48954;59.950;11.014;2023-06-24T03:11:25;5.40;;;3.30;;
62863;SDS011;48954;59.950;11.014;2023-06-24T03:13:52;4.10;;;3.10;;
62863;SDS011;48954;59.950;11.014;2023-06-24T03:16:18;4.80;;;3.20;;
62863;SDS011;48954;59.950;11.014;2023-06-24T03:18:45;5.00;;;3.50;;
62863;SDS011;48954;59.950;11.014;2023-06-24T03:21:12;5.10;;;3.50;;
62863;SDS011;48954;59.950;11.014;2023-06-24T03:23:38;6.00;;;2.90;;
62863;SDS011;48954;59.950;11.014;2023-06-24T03:26:05;4.90;;;3.30;;
62863;SDS011;48954;59.950;11.014;2023-06-24T03:28:32;4.60;;;3.00;;
62863;SDS011;48954;59.950;11.014;2023-06-24T03:30:58;5.00;;;3.00;;
62863;SDS011;48954;59.950;11.014;2023-06-24T03:33:25;3.80;;;3.10;;
62863;SDS011;48954;59.950;11.014;2023-06-24T03:35:51;4.70;;;2.90;;
62863;SDS011;48954;59.950;11.014;2023-06-24T03:38:18;5.10;;;2.90;;
62863;SDS011;48954;59.950;11.014;2023-06-24T03:40:49;5.50;;;3.30;;
62863;SDS011;48954;59.950;11.014;2023-06-24T03:43:16;6.60;;;3.10;;
62863;SDS011;48954;59.950;11.014;2023-06-24T03:45:42;4.20;;;2.80;;
62863;SDS011;48954;59.950;11.014;2023-06-24T03:48:09;6.40;;;3.50;;
62863;SDS011;48954;59.950;11.014;2023-06-24T03:50:36;5.90;;;3.40;;
62863;SDS011;48954;59.950;11.014;2023-06-24T03:53:04;6.80;;;3.00;;
62863;SDS011;48954;59.950;11.014;2023-06-24T03:55:38;3.50;;;2.80;;
62863;SDS011;48954;59.950;11.014;2023-06-24T03:58:05;4.70;;;2.70;;
62863;SDS011;48954;59.950;11.014;2023-06-24T04:00:31;4.50;;;3.20;;
62863;SDS011;48954;59.950;11.014;2023-06-24T04:02:57;4.80;;;2.90;;
62863;SDS011;48954;59.950;11.014;2023-06-24T04:05:24;3.60;;;2.80;;
62863;SDS011;48954;59.950;11.014;2023-06-24T04:07:50;3.90;;;2.90;;
62863;SDS011;48954;59.950;11.014;2023-06-24T04:10:17;6.50;;;3.10;;
62863;SDS011;48954;59.950;11.014;2023-06-24T04:12:45;4.50;;;3.00;;
62863;SDS011;48954;59.950;11.014;2023-06-24T04:15:12;4.90;;;2.90;;
62863;SDS011;48954;59.950;11.014;2023-06-24T04:17:39;5.00;;;2.90;;
62863;SDS011;48954;59.950;11.014;2023-06-24T04:20:06;3.80;;;2.40;;
62863;SDS011;48954;59.950;11.014;2023-06-24T04:22:33;4.80;;;2.70;;
62863;SDS011;48954;59.950;11.014;2023-06-24T04:24:59;4.80;;;2.60;;
62863;SDS011;48954;59.950;11.014;2023-06-24T04:27:26;6.20;;;3.10;;
62863;SDS011;48954;59.950;11.014;2023-06-24T04:29:52;5.40;;;3.00;;
62863;SDS011;48954;59.950;11.014;2023-06-24T04:32:19;5.70;;;2.80;;
62863;SDS011;48954;59.950;11.014;2023-06-24T04:34:45;3.40;;;2.80;;
62863;SDS011;48954;59.950;11.014;2023-06-24T04:37:13;3.80;;;2.80;;
62863;SDS011;48954;59.950;11.014;2023-06-24T04:39:40;5.90;;;3.30;;
62863;SDS011;48954;59.950;11.014;2023-06-24T04:42:07;3.30;;;2.40;;
62863;SDS011;48954;59.950;11.014;2023-06-24T04:44:33;5.20;;;2.80;;
62863;SDS011;48954;59.950;11.014;2023-06-24T04:47:00;4.30;;;2.90;;
62863;SDS011;48954;59.950;11.014;2023-06-24T04:49:27;3.80;;;2.40;;
62863;SDS011;48954;59.950;11.014;2023-06-24T04:51:53;4.10;;;3.10;;
62863;SDS011;48954;59.950;11.014;2023-06-24T04:54:20;4.60;;;2.90;;
62863;SDS011;48954;59.950;11.014;2023-06-24T04:56:46;4.60;;;2.70;;
62863;SDS011;48954;59.950;11.014;2023-06-24T04:59:13;4.10;;;2.60;;
62863;SDS011;48954;59.950;11.014;2023-06-24T05:01:39;3.70;;;2.90;;
62863;SDS011;48954;59.950;11.014;2023-06-24T05:04:07;4.10;;;2.70;;
62863;SDS011;48954;59.950;11.014;2023-06-24T05:06:33;4.30;;;3.00;;
62863;SDS011;48954;59.950;11.014;2023-06-24T05:09:00;3.30;;;2.50;;
62863;SDS011;48954;59.950;11.014;2023-06-24T05:11:27;3.70;;;2.70;;
62863;SDS011;48954;59.950;11.014;2023-06-24T05:13:53;4.20;;;2.80;;
62863;SDS011;48954;59.950;11.014;2023-06-24T05:16:20;4.30;;;2.80;;
62863;SDS011;48954;59.950;11.014;2023-06-24T05:18:46;4.20;;;2.70;;
62863;SDS011;48954;59.950;11.014;2023-06-24T05:21:13;4.30;;;2.80;;
62863;SDS011;48954;59.950;11.014;2023-06-24T05:23:39;3.50;;;2.60;;
62863;SDS011;48954;59.950;11.014;2023-06-24T05:26:06;3.90;;;2.40;;
62863;SDS011;48954;59.950;11.014;2023-06-24T05:28:33;5.30;;;3.00;;
62863;SDS011;48954;59.950;11.014;2023-06-24T05:31:00;4.30;;;2.70;;
62863;SDS011;48954;59.950;11.014;2023-06-24T05:33:26;3.50;;;2.50;;
62863;SDS011;48954;59.950;11.014;2023-06-24T05:35:52;5.20;;;2.90;;
62863;SDS011;48954;59.950;11.014;2023-06-24T05:38:19;3.80;;;2.60;;
62863;SDS011;48954;59.950;11.014;2023-06-24T05:40:45;4.50;;;2.70;;
62863;SDS011;48954;59.950;11.014;2023-06-24T05:43:12;5.10;;;2.90;;
62863;SDS011;48954;59.950;11.014;2023-06-24T05:45:38;4.80;;;2.50;;
62863;SDS011;48954;59.950;11.014;2023-06-24T05:48:05;4.80;;;3.20;;
62863;SDS011;48954;59.950;11.014;2023-06-24T05:50:32;4.50;;;2.90;;
62863;SDS011;48954;59.950;11.014;2023-06-24T05:52:58;4.40;;;2.70;;
62863;SDS011;48954;59.950;11.014;2023-06-24T05:55:25;3.30;;;2.60;;
62863;SDS011;48954;59.950;11.014;2023-06-24T05:57:51;3.70;;;2.40;;
62863;SDS011;48954;59.950;11.014;2023-06-24T06:00:18;3.10;;;2.40;;
62863;SDS011;48954;59.950;11.014;2023-06-24T06:02:45;4.00;;;2.70;;
62863;SDS011;48954;59.950;11.014;2023-06-24T06:05:11;5.50;;;2.70;;
62863;SDS011;48954;59.950;11.014;2023-06-24T06:07:39;4.10;;;2.70;;
62863;SDS011;48954;59.950;11.014;2023-06-24T06:10:05;3.80;;;2.60;;
62863;SDS011;48954;59.950;11.014;2023-06-24T06:12:33;4.00;;;2.80;;
62863;SDS011;48954;59.950;11.014;2023-06-24T06:15:03;5.90;;;2.60;;
62863;SDS011;48954;59.950;11.014;2023-06-24T06:17:31;3.50;;;2.70;;
62863;SDS011;48954;59.950;11.014;2023-06-24T06:19:58;5.00;;;2.80;;
62863;SDS011;48954;59.950;11.014;2023-06-24T06:22:25;4.50;;;2.90;;
62863;SDS011;48954;59.950;11.014;2023-06-24T06:24:54;3.80;;;2.60;;
62863;SDS011;48954;59.950;11.014;2023-06-24T06:27:20;4.90;;;2.50;;
62863;SDS011;48954;59.950;11.014;2023-06-24T06:29:47;3.70;;;2.70;;
62863;SDS011;48954;59.950;11.014;2023-06-24T06:32:13;4.70;;;2.90;;
62863;SDS011;48954;59.950;11.014;2023-06-24T06:34:41;6.60;;;2.80;;
62863;SDS011;48954;59.950;11.014;2023-06-24T06:37:08;3.50;;;2.60;;
62863;SDS011;48954;59.950;11.014;2023-06-24T06:39:35;3.60;;;2.50;;
62863;SDS011;48954;59.950;11.014;2023-06-24T06:42:01;3.20;;;2.20;;
62863;SDS011;48954;59.950;11.014;2023-06-24T06:44:28;3.70;;;2.60;;
62863;SDS011;48954;59.950;11.014;2023-06-24T06:46:54;4.00;;;2.50;;
62863;SDS011;48954;59.950;11.014;2023-06-24T06:49:21;4.50;;;2.70;;
62863;SDS011;48954;59.950;11.014;2023-06-24T06:51:47;5.00;;;2.90;;
62863;SDS011;48954;59.950;11.014;2023-06-24T06:54:14;5.70;;;2.70;;
62863;SDS011;48954;59.950;11.014;2023-06-24T06:56:41;4.50;;;2.70;;
62863;SDS011;48954;59.950;11.014;2023-06-24T06:59:08;4.20;;;2.60;;
62863;SDS011;48954;59.950;11.014;2023-06-24T07:01:35;3.20;;;2.60;;
62863;SDS011;48954;59.950;11.014;2023-06-24T07:04:01;4.00;;;2.80;;
62863;SDS011;48954;59.950;11.014;2023-06-24T07:06:28;4.00;;;2.60;;
62863;SDS011;48954;59.950;11.014;2023-06-24T07:08:54;3.40;;;2.70;;
62863;SDS011;48954;59.950;11.014;2023-06-24T07:11:21;3.30;;;2.50;;
62863;SDS011;48954;59.950;11.014;2023-06-24T07:13:47;5.00;;;2.80;;
62863;SDS011;48954;59.950;11.014;2023-06-24T07:16:14;3.50;;;2.70;;
62863;SDS011;48954;59.950;11.014;2023-06-24T07:18:41;3.60;;;2.60;;
62863;SDS011;48954;59.950;11.014;2023-06-24T07:21:08;4.80;;;3.00;;
62863;SDS011;48954;59.950;11.014;2023-06-24T07:23:34;3.20;;;2.40;;
62863;SDS011;48954;59.950;11.014;2023-06-24T07:26:01;3.70;;;2.80;;
62863;SDS011;48954;59.950;11.014;2023-06-24T07:28:27;3.40;;;2.60;;
62863;SDS011;48954;59.950;11.014;2023-06-24T07:30:54;4.10;;;2.80;;
62863;SDS011;48954;59.950;11.014;2023-06-24T07:33:20;3.70;;;2.70;;
62863;SDS011;48954;59.950;11.014;2023-06-24T07:35:47;4.20;;;2.50;;
62863;SDS011;48954;59.950;11.014;2023-06-24T07:38:13;4.40;;;3.10;;
62863;SDS011;48954;59.950;11.014;2023-06-24T07:40:40;3.20;;;2.30;;
62863;SDS011;48954;59.950;11.014;2023-06-24T07:43:06;4.00;;;2.90;;
62863;SDS011;48954;59.950;11.014;2023-06-24T07:45:33;4.70;;;2.50;;
62863;SDS011;48954;59.950;11.014;2023-06-24T07:47:59;3.00;;;2.40;;
62863;SDS011;48954;59.950;11.014;2023-06-24T07:50:31;4.30;;;2.50;;
62863;SDS011;48954;59.950;11.014;2023-06-24T07:52:58;3.60;;;2.70;;
62863;SDS011;48954;59.950;11.014;2023-06-24T07:55:24;4.00;;;2.90;;
62863;SDS011;48954;59.950;11.014;2023-06-24T07:57:51;3.70;;;2.80;;
62863;SDS011;48954;59.950;11.014;2023-06-24T08:00:22;4.00;;;2.60;;
62863;SDS011;48954;59.950;11.014;2023-06-24T08:02:49;4.40;;;2.60;;
62863;SDS011;48954;59.950;11.014;2023-06-24T08:05:16;3.60;;;2.70;;
62863;SDS011;48954;59.950;11.014;2023-06-24T08:07:43;3.20;;;2.60;;
62863;SDS011;48954;59.950;11.014;2023-06-24T08:10:10;3.60;;;3.00;;
62863;SDS011;48954;59.950;11.014;2023-06-24T08:12:36;3.40;;;2.60;;
62863;SDS011;48954;59.950;11.014;2023-06-24T08:15:06;4.00;;;3.10;;
62863;SDS011;48954;59.950;11.014;2023-06-24T08:17:33;3.70;;;2.60;;
62863;SDS011;48954;59.950;11.014;2023-06-24T08:20:03;3.30;;;2.80;;
62863;SDS011;48954;59.950;11.014;2023-06-24T08:22:30;3.90;;;2.70;;
62863;SDS011;48954;59.950;11.014;2023-06-24T08:24:58;4.20;;;2.70;;
62863;SDS011;48954;59.950;11.014;2023-06-24T08:27:24;3.30;;;3.00;;
62863;SDS011;48954;59.950;11.014;2023-06-24T08:29:52;3.70;;;3.00;;
62863;SDS011;48954;59.950;11.014;2023-06-24T08:32:18;3.00;;;2.50;;
62863;SDS011;48954;59.950;11.014;2023-06-24T08:34:45;4.60;;;3.10;;
62863;SDS011;48954;59.950;11.014;2023-06-24T08:37:11;3.50;;;2.70;;
62863;SDS011;48954;59.950;11.014;2023-06-24T08:39:43;3.50;;;2.80;;
62863;SDS011;48954;59.950;11.014;2023-06-24T08:42:10;4.20;;;3.10;;
62863;SDS011;48954;59.950;11.014;2023-06-24T08:44:36;5.00;;;2.90;;
62863;SDS011;48954;59.950;11.014;2023-06-24T08:47:03;4.10;;;2.90;;
62863;SDS011;48954;59.950;11.014;2023-06-24T08:49:31;4.30;;;3.00;;
62863;SDS011;48954;59.950;11.014;2023-06-24T08:52:11;4.00;;;3.00;;
62863;SDS011;48954;59.950;11.014;2023-06-24T08:54:41;3.30;;;2.70;;
62863;SDS011;48954;59.950;11.014;2023-06-24T08:57:19;3.40;;;2.80;;
62863;SDS011;48954;59.950;11.014;2023-06-24T08:59:47;4.00;;;3.00;;
62863;SDS011;48954;59.950;11.014;2023-06-24T09:02:14;3.50;;;3.10;;
62863;SDS011;48954;59.950;11.014;2023-06-24T09:04:42;4.00;;;3.10;;
62863;SDS011;48954;59.950;11.014;2023-06-24T09:07:08;4.50;;;3.10;;
62863;SDS011;48954;59.950;11.014;2023-06-24T09:09:41;4.10;;;3.10;;
62863;SDS011;48954;59.950;11.014;2023-06-24T09:12:12;3.50;;;3.10;;
62863;SDS011;48954;59.950;11.014;2023-06-24T09:14:41;4.40;;;2.90;;
62863;SDS011;48954;59.950;11.014;2023-06-24T09:17:09;4.60;;;3.40;;
62863;SDS011;48954;59.950;11.014;2023-06-24T09:19:36;3.80;;;3.10;;
62863;SDS011;48954;59.950;11.014;2023-06-24T09:22:10;3.90;;;3.20;;
62863;SDS011;48954;59.950;11.014;2023-06-24T09:24:37;3.60;;;2.90;;
62863;SDS011;48954;59.950;11.014;2023-06-24T09:27:04;3.60;;;3.30;;
62863;SDS011;48954;59.950;11.014;2023-06-24T09:29:35;3.70;;;3.00;;
62863;SDS011;48954;59.950;11.014;2023-06-24T09:32:05;4.00;;;3.20;;
62863;SDS011;48954;59.950;11.014;2023-06-24T09:34:33;4.50;;;3.40;;
62863;SDS011;48954;59.950;11.014;2023-06-24T09:37:00;5.80;;;3.60;;
62863;SDS011;48954;59.950;11.014;2023-06-24T09:39:36;3.80;;;3.30;;
62863;SDS011;48954;59.950;11.014;2023-06-24T09:42:07;3.70;;;3.10;;
62863;SDS011;48954;59.950;11.014;2023-06-24T09:44:33;4.00;;;3.30;;
62863;SDS011;48954;59.950;11.014;2023-06-24T09:47:00;3.50;;;3.10;;
62863;SDS011;48954;59.950;11.014;2023-06-24T09:49:28;3.50;;;3.00;;
62863;SDS011;48954;59.950;11.014;2023-06-24T09:51:56;3.90;;;3.10;;
62863;SDS011;48954;59.950;11.014;2023-06-24T09:54:26;4.10;;;3.20;;
62863;SDS011;48954;59.950;11.014;2023-06-24T09:56:54;3.70;;;3.10;;
62863;SDS011;48954;59.950;11.014;2023-06-24T09:59:26;4.00;;;3.00;;
62863;SDS011;48954;59.950;11.014;2023-06-24T10:01:54;3.90;;;3.50;;
62863;SDS011;48954;59.950;11.014;2023-06-24T10:04:21;3.40;;;2.90;;
62863;SDS011;48954;59.950;11.014;2023-06-24T10:06:48;3.80;;;3.00;;
62863;SDS011;48954;59.950;11.014;2023-06-24T10:09:16;7.40;;;3.50;;
62863;SDS011;48954;59.950;11.014;2023-06-24T10:11:44;4.40;;;2.90;;
62863;SDS011;48954;59.950;11.014;2023-06-24T10:14:10;3.80;;;3.40;;
62863;SDS011;48954;59.950;11.014;2023-06-24T10:16:39;3.60;;;3.20;;
62863;SDS011;48954;59.950;11.014;2023-06-24T10:19:06;3.90;;;3.30;;
62863;SDS011;48954;59.950;11.014;2023-06-24T10:21:45;4.30;;;3.80;;
62863;SDS011;48954;59.950;11.014;2023-06-24T10:24:12;3.60;;;3.30;;
62863;SDS011;48954;59.950;11.014;2023-06-24T10:26:39;3.40;;;3.10;;
62863;SDS011;48954;59.950;11.014;2023-06-24T10:36:56;3.50;;;3.00;;
62863;SDS011;48954;59.950;11.014;2023-06-24T10:42:31;4.00;;;3.60;;
62863;SDS011;48954;59.950;11.014;2023-06-24T10:45:02;3.70;;;3.40;;
62863;SDS011;48954;59.950;11.014;2023-06-24T10:47:45;4.40;;;3.30;;
62863;SDS011;48954;59.950;11.014;2023-06-24T10:50:15;4.20;;;3.30;;
62863;SDS011;48954;59.950;11.014;2023-06-24T10:52:45;5.10;;;3.50;;
62863;SDS011;48954;59.950;11.014;2023-06-24T10:55:16;4.60;;;3.50;;
62863;SDS011;48954;59.950;11.014;2023-06-24T10:57:44;3.50;;;3.10;;
62863;SDS011;48954;59.950;11.014;2023-06-24T11:00:12;3.80;;;3.30;;
62863;SDS011;48954;59.950;11.014;2023-06-24T11:02:40;4.60;;;3.60;;
62863;SDS011;48954;59.950;11.014;2023-06-24T11:05:08;4.50;;;3.50;;
62863;SDS011;48954;59.950;11.014;2023-06-24T11:07:37;4.10;;;3.20;;
62863;SDS011;48954;59.950;11.014;2023-06-24T11:10:05;4.40;;;3.80;;
62863;SDS011;48954;59.950;11.014;2023-06-24T11:12:34;5.20;;;3.80;;
62863;SDS011;48954;59.950;11.014;2023-06-24T11:15:11;5.20;;;3.40;;
62863;SDS011;48954;59.950;11.014;2023-06-24T11:17:43;4.50;;;3.50;;
62863;SDS011;48954;59.950;11.014;2023-06-24T11:20:11;3.50;;;3.20;;
62863;SDS011;48954;59.950;11.014;2023-06-24T11:22:40;4.30;;;3.40;;
62863;SDS011;48954;59.950;11.014;2023-06-24T11:25:28;4.50;;;3.60;;
62863;SDS011;48954;59.950;11.014;2023-06-24T11:27:54;4.40;;;3.50;;
62863;SDS011;48954;59.950;11.014;2023-06-24T11:30:33;4.70;;;3.50;;
62863;SDS011;48954;59.950;11.014;2023-06-24T11:33:03;3.50;;;3.10;;
62863;SDS011;48954;59.950;11.014;2023-06-24T11:36:10;4.60;;;3.70;;
62863;SDS011;48954;59.950;11.014;2023-06-24T11:38:38;3.60;;;3.30;;
62863;SDS011;48954;59.950;11.014;2023-06-24T11:41:08;3.30;;;3.00;;
62863;SDS011;48954;59.950;11.014;2023-06-24T11:43:36;3.90;;;3.20;;
62863;SDS011;48954;59.950;11.014;2023-06-24T11:46:05;3.20;;;2.70;;
62863;SDS011;48954;59.950;11.014;2023-06-24T11:48:38;5.20;;;3.60;;
62863;SDS011;48954;59.950;11.014;2023-06-24T11:51:14;4.80;;;3.80;;
62863;SDS011;48954;59.950;11.014;2023-06-24T11:53:42;4.90;;;3.40;;
62863;SDS011;48954;59.950;11.014;2023-06-24T11:58:43;4.80;;;3.50;;
62863;SDS011;48954;59.950;11.014;2023-06-24T12:01:11;4.20;;;3.80;;
62863;SDS011;48954;59.950;11.014;2023-06-24T12:03:40;4.00;;;3.20;;
62863;SDS011;48954;59.950;11.014;2023-06-24T12:06:11;4.90;;;3.30;;
62863;SDS011;48954;59.950;11.014;2023-06-24T12:08:54;3.90;;;3.40;;
62863;SDS011;48954;59.950;11.014;2023-06-24T12:11:37;4.80;;;3.30;;
62863;SDS011;48954;59.950;11.014;2023-06-24T12:14:17;4.80;;;3.40;;
62863;SDS011;48954;59.950;11.014;2023-06-24T12:16:46;3.90;;;3.10;;
62863;SDS011;48954;59.950;11.014;2023-06-24T12:19:17;4.30;;;3.40;;
62863;SDS011;48954;59.950;11.014;2023-06-24T12:21:46;3.30;;;3.00;;
62863;SDS011;48954;59.950;11.014;2023-06-24T12:24:28;3.60;;;3.00;;
62863;SDS011;48954;59.950;11.014;2023-06-24T12:26:55;4.30;;;3.90;;
62863;SDS011;48954;59.950;11.014;2023-06-24T12:29:22;4.40;;;3.50;;
62863;SDS011;48954;59.950;11.014;2023-06-24T12:31:49;3.90;;;3.20;;
62863;SDS011;48954;59.950;11.014;2023-06-24T12:34:17;3.50;;;2.90;;
62863;SDS011;48954;59.950;11.014;2023-06-24T12:39:52;5.40;;;3.60;;
62863;SDS011;48954;59.950;11.014;2023-06-24T12:45:43;5.20;;;4.00;;
62863;SDS011;48954;59.950;11.014;2023-06-24T12:48:12;5.20;;;4.00;;
62863;SDS011;48954;59.950;11.014;2023-06-24T12:53:51;5.70;;;4.50;;
62863;SDS011;48954;59.950;11.014;2023-06-24T12:56:19;6.20;;;4.10;;
62863;SDS011;48954;59.950;11.014;2023-06-24T12:58:46;5.00;;;4.20;;
62863;SDS011;48954;59.950;11.014;2023-06-24T13:01:13;5.30;;;4.10;;
62863;SDS011;48954;59.950;11.014;2023-06-24T13:03:52;6.10;;;3.80;;
62863;SDS011;48954;59.950;11.014;2023-06-24T13:06:21;5.60;;;4.30;;
62863;SDS011;48954;59.950;11.014;2023-06-24T13:08:48;4.70;;;3.60;;
62863;SDS011;48954;59.950;11.014;2023-06-24T13:11:15;4.10;;;3.70;;
62863;SDS011;48954;59.950;11.014;2023-06-24T13:13:43;5.30;;;4.40;;
62863;SDS011;48954;59.950;11.014;2023-06-24T13:16:10;4.90;;;4.00;;
62863;SDS011;48954;59.950;11.014;2023-06-24T13:18:41;3.80;;;3.20;;
62863;SDS011;48954;59.950;11.014;2023-06-24T13:21:12;10.60;;;7.80;;
62863;SDS011;48954;59.950;11.014;2023-06-24T13:23:39;7.90;;;4.00;;
62863;SDS011;48954;59.950;11.014;2023-06-24T13:26:06;4.50;;;3.30;;
62863;SDS011;48954;59.950;11.014;2023-06-24T13:28:33;3.60;;;2.70;;
62863;SDS011;48954;59.950;11.014;2023-06-24T13:30:59;4.50;;;3.00;;
62863;SDS011;48954;59.950;11.014;2023-06-24T13:33:26;4.80;;;3.50;;
62863;SDS011;48954;59.950;11.014;2023-06-24T13:35:52;4.70;;;3.30;;
62863;SDS011;48954;59.950;11.014;2023-06-24T13:38:20;3.60;;;2.90;;
62863;SDS011;48954;59.950;11.014;2023-06-24T13:40:47;3.90;;;3.10;;
62863;SDS011;48954;59.950;11.014;2023-06-24T13:43:14;4.50;;;3.40;;
62863;SDS011;48954;59.950;11.014;2023-06-24T13:45:40;5.80;;;4.40;;
62863;SDS011;48954;59.950;11.014;2023-06-24T13:48:11;4.80;;;4.20;;
62863;SDS011;48954;59.950;11.014;2023-06-24T13:50:38;4.70;;;4.00;;
62863;SDS011;48954;59.950;11.014;2023-06-24T13:53:05;6.30;;;3.90;;
62863;SDS011;48954;59.950;11.014;2023-06-24T13:55:45;4.70;;;3.50;;
62863;SDS011;48954;59.950;11.014;2023-06-24T13:58:23;5.60;;;3.80;;
62863;SDS011;48954;59.950;11.014;2023-06-24T14:01:04;4.60;;;3.50;;
62863;SDS011;48954;59.950;11.014;2023-06-24T14:03:31;5.30;;;3.50;;
62863;SDS011;48954;59.950;11.014;2023-06-24T14:06:00;4.50;;;3.60;;
62863;SDS011;48954;59.950;11.014;2023-06-24T14:08:30;4.10;;;3.20;;
62863;SDS011;48954;59.950;11.014;2023-06-24T14:10:57;4.20;;;3.30;;
62863;SDS011;48954;59.950;11.014;2023-06-24T14:13:25;4.70;;;4.20;;
62863;SDS011;48954;59.950;11.014;2023-06-24T14:15:53;5.50;;;3.90;;
62863;SDS011;48954;59.950;11.014;2023-06-24T14:18:20;6.20;;;5.10;;
62863;SDS011;48954;59.950;11.014;2023-06-24T14:20:52;3.40;;;3.10;;
62863;SDS011;48954;59.950;11.014;2023-06-24T14:23:19;3.90;;;3.30;;
62863;SDS011;48954;59.950;11.014;2023-06-24T14:25:46;4.80;;;3.80;;
62863;SDS011;48954;59.950;11.014;2023-06-24T14:28:12;4.60;;;3.50;;
62863;SDS011;48954;59.950;11.014;2023-06-24T14:30:39;5.10;;;3.60;;
62863;SDS011;48954;59.950;11.014;2023-06-24T14:33:05;5.20;;;4.30;;
62863;SDS011;48954;59.950;11.014;2023-06-24T14:35:32;4.80;;;4.20;;
62863;SDS011;48954;59.950;11.014;2023-06-24T14:37:58;5.30;;;3.40;;
62863;SDS011;48954;59.950;11.014;2023-06-24T14:40:25;4.20;;;3.60;;
62863;SDS011;48954;59.950;11.014;2023-06-24T14:42:52;4.00;;;3.40;;
62863;SDS011;48954;59.950;11.014;2023-06-24T14:45:18;4.70;;;3.70;;
62863;SDS011;48954;59.950;11.014;2023-06-24T14:47:46;5.10;;;3.90;;
62863;SDS011;48954;59.950;11.014;2023-06-24T14:50:14;4.90;;;3.70;;
62863;SDS011;48954;59.950;11.014;2023-06-24T14:52:40;5.30;;;4.80;;
62863;SDS011;48954;59.950;11.014;2023-06-24T14:55:07;17.00;;;5.50;;
62863;SDS011;48954;59.950;11.014;2023-06-24T14:57:35;5.90;;;4.40;;
62863;SDS011;48954;59.950;11.014;2023-06-24T15:00:03;5.10;;;3.40;;
62863;SDS011;48954;59.950;11.014;2023-06-24T15:02:32;3.90;;;3.30;;
62863;SDS011;48954;59.950;11.014;2023-06-24T15:05:01;4.00;;;3.30;;
62863;SDS011;48954;59.950;11.014;2023-06-24T15:07:30;3.90;;;3.50;;
62863;SDS011;48954;59.950;11.014;2023-06-24T15:09:57;4.90;;;3.80;;
62863;SDS011;48954;59.950;11.014;2023-06-24T15:12:23;4.60;;;3.90;;
62863;SDS011;48954;59.950;11.014;2023-06-24T15:14:50;5.20;;;4.00;;
62863;SDS011;48954;59.950;11.014;2023-06-24T15:17:16;3.90;;;3.50;;
62863;SDS011;48954;59.950;11.014;2023-06-24T15:19:43;4.10;;;3.50;;